Terminal Aerodrome Forecast
Issued by NWS St Louis, MO

Home | Current Version | Previous Version | Text Only | Print | Product List | Glossary On
Versions: 1 2 3 4 5 6 7 8 9 10 11 12 13 14 15 16 17 18 19
000
FTUS43 KLSX 060500
TAFCOU
TAF
KCOU 060520Z 0606/0706 13007KT P6SM SCT120
     FM061500 17013G23KT P6SM SCT040 BKN120
     FM061900 17014G24KT P6SM VCTS BKN050CB
     FM070100 15009KT P6SM SCT080 BKN250=

USA.gov is the U.S. government's official web portal to all federal, state and local government web resources and services.